createdAt,value
2019-05-23T00:02:39.685Z,11.70
2019-05-23T00:05:14.621Z,11.70
2019-05-23T00:07:44.760Z,11.60
2019-05-23T00:10:19.319Z,11.50
2019-05-23T00:12:59.326Z,11.40
2019-05-23T00:15:32.610Z,11.50
2019-05-23T00:18:03.867Z,11.40
2019-05-23T00:20:33.733Z,11.40
2019-05-23T00:23:04.739Z,11.40
2019-05-23T00:25:34.943Z,11.30
2019-05-23T00:28:05.622Z,11.30
2019-05-23T00:30:57.695Z,11.30
2019-05-23T00:33:31.724Z,11.30
2019-05-23T00:36:01.579Z,11.40
2019-05-23T00:38:32.220Z,11.40
2019-05-23T00:41:02.176Z,11.30
2019-05-23T00:43:32.483Z,11.30
2019-05-23T00:46:02.541Z,11.30
2019-05-23T00:48:31.000Z,11.20
2019-05-23T00:51:04.999Z,11.20
2019-05-23T00:53:34.290Z,11.20
2019-05-23T00:56:03.927Z,11.20
2019-05-23T00:58:33.742Z,11.10
2019-05-23T01:01:02.226Z,11.10
2019-05-23T01:03:39.319Z,11.00
2019-05-23T01:06:08.411Z,11.00
2019-05-23T01:08:37.589Z,10.90
2019-05-23T01:11:07.483Z,10.90
2019-05-23T01:13:36.143Z,10.90
2019-05-23T01:16:04.629Z,10.80
2019-05-23T01:18:33.500Z,10.80
2019-05-23T01:21:21.311Z,10.80
2019-05-23T01:23:55.681Z,10.80
2019-05-23T01:26:25.298Z,10.70
2019-05-23T01:28:54.411Z,10.70
2019-05-23T01:31:24.826Z,10.70
2019-05-23T01:33:54.815Z,10.70
2019-05-23T01:36:23.594Z,10.70
2019-05-23T01:38:52.583Z,10.70
2019-05-23T01:41:22.218Z,10.70
2019-05-23T01:43:52.831Z,10.60
2019-05-23T01:46:21.746Z,10.60
2019-05-23T01:48:51.050Z,10.60
2019-05-23T01:51:20.917Z,10.50
2019-05-23T01:53:50.200Z,10.50
2019-05-23T01:56:18.419Z,10.50
2019-05-23T01:58:46.923Z,10.50
2019-05-23T02:01:16.154Z,10.50
2019-05-23T02:03:46.683Z,10.40
2019-05-23T02:06:14.881Z,10.40
2019-05-23T02:08:43.056Z,10.40
2019-05-23T02:11:11.791Z,10.40
2019-05-23T02:13:39.596Z,10.40
2019-05-23T02:16:07.310Z,10.30
2019-05-23T02:18:36.168Z,10.30
2019-05-23T02:21:05.194Z,10.30
2019-05-23T02:23:34.797Z,10.30
2019-05-23T02:26:04.112Z,10.30
2019-05-23T02:28:32.310Z,10.20
2019-05-23T02:31:01.538Z,10.20
2019-05-23T02:33:29.675Z,10.10
2019-05-23T02:35:58.188Z,10.10
2019-05-23T02:38:54.723Z,10.10
2019-05-23T02:41:49.404Z,10.10
2019-05-23T02:44:24.038Z,10.10
2019-05-23T02:47:11.867Z,10.10
2019-05-23T02:49:43.694Z,10.10
2019-05-23T02:52:26.988Z,10.10
2019-05-23T02:54:57.328Z,10.10
2019-05-23T02:57:26.059Z,10.10
2019-05-23T03:00:03.052Z,10.10
2019-05-23T03:02:44.875Z,10.10
2019-05-23T03:05:16.931Z,10.00
2019-05-23T03:07:46.150Z,10.00
2019-05-23T03:10:19.086Z,10.10
2019-05-23T03:12:52.241Z,10.10
2019-05-23T03:15:24.147Z,10.10
2019-05-23T03:17:55.036Z,10.20
2019-05-23T03:20:26.159Z,10.10
2019-05-23T03:23:11.941Z,10.10
2019-05-23T03:26:20.151Z,10.10
2019-05-23T03:28:49.469Z,10.10
2019-05-23T03:31:41.591Z,10.10
2019-05-23T03:34:13.120Z,10.10
2019-05-23T03:36:43.463Z,10.10
2019-05-23T03:39:12.241Z,10.10
2019-05-23T03:41:41.004Z,10.20
2019-05-23T03:44:09.488Z,10.10
2019-05-23T03:46:43.892Z,10.10
2019-05-23T03:49:14.282Z,10.20
2019-05-23T03:51:44.217Z,10.20
2019-05-23T03:54:22.478Z,10.20
2019-05-23T03:56:53.678Z,10.20
2019-05-23T03:59:24.286Z,10.20
2019-05-23T04:01:55.436Z,10.30
2019-05-23T04:04:23.715Z,10.20
2019-05-23T04:06:54.121Z,10.20
2019-05-23T04:09:22.441Z,10.30
2019-05-23T04:11:50.691Z,10.30
2019-05-23T04:14:18.779Z,10.30
2019-05-23T04:16:46.739Z,10.30
2019-05-23T04:19:16.059Z,10.30
2019-05-23T04:21:44.402Z,10.30
2019-05-23T04:24:12.829Z,10.30
2019-05-23T04:26:40.651Z,10.40
2019-05-23T04:29:09.083Z,10.40
2019-05-23T04:31:37.029Z,10.40
2019-05-23T04:34:05.035Z,10.40
2019-05-23T04:36:33.285Z,10.40
2019-05-23T04:39:01.272Z,10.40
2019-05-23T04:41:30.583Z,10.40
2019-05-23T04:44:00.179Z,10.50
2019-05-23T04:46:28.536Z,10.50
2019-05-23T04:48:56.535Z,10.50
2019-05-23T04:51:25.700Z,10.50
2019-05-23T04:53:54.048Z,10.50
2019-05-23T04:56:22.121Z,10.50
2019-05-23T04:58:51.931Z,10.50
2019-05-23T05:01:20.718Z,10.60
2019-05-23T05:03:51.438Z,10.50
2019-05-23T05:06:19.869Z,10.50
2019-05-23T05:08:48.038Z,10.50
2019-05-23T05:11:16.614Z,10.50
2019-05-23T05:13:45.106Z,10.50
2019-05-23T05:16:13.604Z,10.50
2019-05-23T05:18:41.591Z,10.60
2019-05-23T05:21:10.181Z,10.60
2019-05-23T05:23:37.891Z,10.50
2019-05-23T05:26:09.912Z,10.50
2019-05-23T05:28:39.506Z,10.50
2019-05-23T05:31:07.786Z,10.50
2019-05-23T05:33:35.816Z,10.50
2019-05-23T05:36:03.749Z,10.50
2019-05-23T05:38:32.634Z,10.60
2019-05-23T05:41:02.496Z,10.60
2019-05-23T05:43:32.212Z,10.60
2019-05-23T05:46:00.579Z,10.70
2019-05-23T05:48:29.789Z,10.70
2019-05-23T05:50:57.902Z,10.80
2019-05-23T05:53:25.905Z,10.90
2019-05-23T05:55:53.775Z,11.10
2019-05-23T05:58:21.640Z,11.20
2019-05-23T06:00:56.817Z,11.30
2019-05-23T06:03:26.458Z,11.30
2019-05-23T06:06:02.498Z,11.40
2019-05-23T06:08:33.903Z,11.50
2019-05-23T06:11:04.939Z,11.60
2019-05-23T06:13:33.954Z,11.60
2019-05-23T06:16:04.316Z,11.70
2019-05-23T06:18:32.349Z,11.80
2019-05-23T06:21:01.909Z,11.80
2019-05-23T06:23:31.292Z,12.00
2019-05-23T06:26:00.366Z,12.00
2019-05-23T06:28:30.053Z,12.10
2019-05-23T06:30:59.348Z,12.10
2019-05-23T06:33:27.804Z,12.20
2019-05-23T06:35:57.723Z,12.30
2019-05-23T06:38:26.903Z,12.40
2019-05-23T06:40:55.206Z,12.50
2019-05-23T06:43:24.313Z,12.50
2019-05-23T06:45:52.226Z,12.60
2019-05-23T06:48:20.509Z,12.60
2019-05-23T06:50:48.616Z,12.70
2019-05-23T06:53:16.759Z,12.90
2019-05-23T06:55:44.562Z,12.90
2019-05-23T06:58:12.339Z,13.00
2019-05-23T07:00:40.506Z,13.10
2019-05-23T07:03:09.338Z,13.20
2019-05-23T07:05:37.561Z,13.30
2019-05-23T07:08:06.642Z,13.30
2019-05-23T07:10:34.753Z,13.30
2019-05-23T07:13:04.347Z,13.40
2019-05-23T07:15:32.559Z,13.40
2019-05-23T07:18:01.279Z,13.50
2019-05-23T07:20:29.889Z,13.70
2019-05-23T07:22:58.180Z,13.70
2019-05-23T07:25:26.882Z,13.80
2019-05-23T07:27:54.785Z,13.90
2019-05-23T07:30:25.100Z,14.10
2019-05-23T07:32:53.231Z,14.10
2019-05-23T07:35:21.814Z,14.20
2019-05-23T07:37:49.719Z,14.20
2019-05-23T07:40:17.556Z,14.30
2019-05-23T07:42:45.362Z,14.30
2019-05-23T07:45:17.114Z,14.40
2019-05-23T07:47:46.439Z,14.50
2019-05-23T07:50:14.646Z,14.60
2019-05-23T07:52:43.357Z,14.70
2019-05-23T07:55:20.039Z,14.80
2019-05-23T07:57:49.354Z,14.90
2019-05-23T08:00:23.494Z,15.00
2019-05-23T08:02:54.347Z,15.10
2019-05-23T08:05:24.463Z,15.20
2019-05-23T08:07:53.320Z,15.20
2019-05-23T08:10:33.258Z,15.20
2019-05-23T08:12:52.138Z,15.30
2019-05-23T08:15:20.143Z,15.30
2019-05-23T08:17:48.075Z,15.40
2019-05-23T08:20:16.851Z,15.50
2019-05-23T08:22:46.032Z,15.60
2019-05-23T08:25:13.994Z,15.70
2019-05-23T08:27:42.018Z,15.80
2019-05-23T08:30:10.965Z,15.90
2019-05-23T08:32:40.413Z,16.00
2019-05-23T08:35:08.883Z,16.00
2019-05-23T08:37:38.104Z,16.20
2019-05-23T08:40:06.616Z,16.30
2019-05-23T08:42:35.834Z,16.30
2019-05-23T08:45:06.444Z,16.40
2019-05-23T08:47:35.552Z,16.50
2019-05-23T08:50:04.389Z,16.50
2019-05-23T08:52:33.762Z,16.50
2019-05-23T08:55:06.436Z,16.50
2019-05-23T08:57:36.546Z,16.50
2019-05-23T09:00:04.601Z,16.40
2019-05-23T09:02:33.604Z,16.50
2019-05-23T09:05:06.493Z,16.50
2019-05-23T09:07:35.128Z,16.60
2019-05-23T09:10:04.420Z,16.60
2019-05-23T09:12:33.897Z,16.70
2019-05-23T09:15:04.669Z,16.80
2019-05-23T09:17:49.732Z,16.90
2019-05-23T09:20:03.725Z,17.00
2019-05-23T09:22:33.411Z,17.10
2019-05-23T09:25:01.332Z,17.20
2019-05-23T09:27:34.566Z,17.30
2019-05-23T09:30:02.076Z,17.40
2019-05-23T09:32:31.504Z,17.30
2019-05-23T09:34:59.331Z,17.40
2019-05-23T09:37:27.454Z,17.50
2019-05-23T09:39:55.603Z,17.70
2019-05-23T09:42:24.363Z,17.90
2019-05-23T09:44:52.225Z,18.10
2019-05-23T09:47:20.338Z,18.30
2019-05-23T09:49:55.594Z,18.40
2019-05-23T09:52:19.435Z,18.60
2019-05-23T09:54:48.168Z,18.80
2019-05-23T09:57:16.511Z,19.00
2019-05-23T09:59:44.994Z,19.00
2019-05-23T10:02:13.480Z,19.30
2019-05-23T10:04:41.954Z,19.20
2019-05-23T10:07:10.035Z,19.20
2019-05-23T10:09:38.751Z,19.20
2019-05-23T10:12:06.483Z,19.30
2019-05-23T10:14:35.627Z,19.10
2019-05-23T10:17:05.287Z,19.00
2019-05-23T10:19:33.413Z,19.00
2019-05-23T10:22:01.487Z,19.00
2019-05-23T10:24:30.620Z,19.00
2019-05-23T10:26:59.075Z,19.00
2019-05-23T10:29:27.090Z,19.00
2019-05-23T10:31:54.918Z,18.90
2019-05-23T10:34:22.830Z,18.90
2019-05-23T10:36:50.681Z,19.00
2019-05-23T10:39:19.242Z,19.10
2019-05-23T10:41:47.614Z,19.00
2019-05-23T10:44:15.574Z,19.10
2019-05-23T10:46:43.530Z,19.10
2019-05-23T10:49:11.437Z,19.10
2019-05-23T10:51:39.288Z,19.10
2019-05-23T10:54:07.758Z,19.30
2019-05-23T10:56:36.179Z,19.30
2019-05-23T10:59:04.597Z,19.50
2019-05-23T11:01:33.353Z,19.50
2019-05-23T11:04:02.247Z,19.50
2019-05-23T11:06:31.533Z,19.60
2019-05-23T11:08:59.774Z,19.70
2019-05-23T11:11:30.135Z,19.90
2019-05-23T11:13:58.368Z,20.00
2019-05-23T11:16:26.436Z,20.20
2019-05-23T11:18:55.409Z,20.20
2019-05-23T11:21:23.433Z,20.30
2019-05-23T11:23:53.287Z,20.50
2019-05-23T11:26:21.768Z,20.70
2019-05-23T11:28:49.724Z,20.80
2019-05-23T11:31:17.823Z,21.00
2019-05-23T11:33:45.557Z,21.10
2019-05-23T11:36:14.170Z,21.20
2019-05-23T11:38:42.639Z,21.10
2019-05-23T11:41:11.074Z,21.20
2019-05-23T11:43:40.059Z,20.90
2019-05-23T11:46:28.221Z,20.90
2019-05-23T11:48:57.621Z,21.00
2019-05-23T11:51:26.235Z,21.20
2019-05-23T11:54:07.138Z,21.40
2019-05-23T11:56:25.216Z,21.60
2019-05-23T11:59:00.632Z,21.80
2019-05-23T12:01:33.948Z,21.90
2019-05-23T12:04:23.317Z,21.80
2019-05-23T12:07:14.488Z,21.80
2019-05-23T12:09:43.911Z,21.90
2019-05-23T12:12:11.696Z,22.00
2019-05-23T12:14:40.132Z,22.10
2019-05-23T12:17:08.365Z,22.30
2019-05-23T12:19:36.271Z,22.30
2019-05-23T12:22:04.661Z,22.40
2019-05-23T12:24:35.640Z,22.40
2019-05-23T12:27:02.938Z,22.50
2019-05-23T12:29:31.400Z,22.50
2019-05-23T12:32:00.899Z,22.60
2019-05-23T12:34:29.260Z,22.70
2019-05-23T12:37:17.089Z,23.00
2019-05-23T12:41:55.182Z,23.00
2019-05-23T12:44:23.496Z,22.80
2019-05-23T12:46:51.406Z,22.90
2019-05-23T12:49:30.264Z,23.00
2019-05-23T12:52:00.702Z,23.10
2019-05-23T12:54:30.382Z,23.20
2019-05-23T12:56:59.113Z,23.20
2019-05-23T12:59:27.111Z,23.20
2019-05-23T13:01:56.634Z,23.20
2019-05-23T13:04:25.415Z,23.20
2019-05-23T13:06:54.180Z,23.40
2019-05-23T13:09:22.628Z,23.60
2019-05-23T13:11:50.648Z,23.70
2019-05-23T13:14:19.090Z,23.70
2019-05-23T13:19:15.361Z,23.90
2019-05-23T13:21:43.634Z,24.10
2019-05-23T13:34:03.807Z,24.30
2019-05-23T13:36:31.648Z,24.20
2019-05-23T13:38:59.590Z,24.00
2019-05-23T13:41:27.708Z,23.90
2019-05-23T13:43:55.715Z,24.10
2019-05-23T13:46:23.901Z,24.30
2019-05-23T13:51:19.478Z,24.50
2019-05-23T13:53:47.295Z,24.60
2019-05-23T13:56:16.506Z,24.50
2019-05-23T13:58:44.649Z,24.50
2019-05-23T14:01:13.033Z,24.40
2019-05-23T14:03:41.948Z,24.30
2019-05-23T14:06:11.735Z,24.30
2019-05-23T14:08:42.799Z,24.30
2019-05-23T14:13:39.005Z,24.60
2019-05-23T14:16:06.917Z,24.70
2019-05-23T14:18:36.532Z,24.40
2019-05-23T14:21:05.353Z,24.40
2019-05-23T14:23:33.423Z,24.60
2019-05-23T14:28:31.436Z,24.90
2019-05-23T14:31:07.295Z,24.90
2019-05-23T14:33:46.181Z,24.80
2019-05-23T14:36:32.381Z,24.60
2019-05-23T14:39:02.822Z,24.70
2019-05-23T14:41:45.412Z,24.70
2019-05-23T14:44:14.389Z,24.70
2019-05-23T14:46:53.298Z,24.60
2019-05-23T14:49:29.309Z,24.70
2019-05-23T14:52:04.813Z,25.00
2019-05-23T14:54:43.033Z,25.10
2019-05-23T14:57:12.852Z,25.20
2019-05-23T14:59:41.870Z,25.20
2019-05-23T15:02:15.375Z,25.40
2019-05-23T15:04:43.917Z,25.50
2019-05-23T15:07:11.726Z,25.20
2019-05-23T15:09:39.630Z,25.20
2019-05-23T15:12:08.600Z,25.40
2019-05-23T15:14:36.497Z,26.40
2019-05-23T15:17:04.603Z,25.60
2019-05-23T15:19:44.067Z,25.50
2019-05-23T15:22:02.278Z,25.60
2019-05-23T15:24:30.905Z,25.50
2019-05-23T15:26:58.822Z,25.50
2019-05-23T15:29:29.171Z,25.40
2019-05-23T15:32:02.481Z,25.20
2019-05-23T15:34:26.086Z,25.10
2019-05-23T15:36:53.814Z,25.10
2019-05-23T15:39:22.347Z,24.90
2019-05-23T15:41:50.531Z,24.90
2019-05-23T15:44:27.177Z,24.90
2019-05-23T15:46:48.427Z,25.10
2019-05-23T15:49:16.663Z,25.10
2019-05-23T15:51:53.993Z,25.10
2019-05-23T15:54:30.327Z,25.00
2019-05-23T15:57:19.139Z,25.20
2019-05-23T16:00:08.352Z,25.30
2019-05-23T16:02:50.250Z,25.50
2019-05-23T16:05:26.396Z,25.40
2019-05-23T16:07:54.537Z,25.20
2019-05-23T16:10:23.989Z,25.10
2019-05-23T16:12:52.880Z,25.00
2019-05-23T16:15:20.643Z,24.70
2019-05-23T16:17:48.842Z,24.80
2019-05-23T16:20:17.230Z,24.80
2019-05-23T16:22:45.588Z,24.70
2019-05-23T16:25:13.411Z,24.70
2019-05-23T16:27:41.638Z,24.70
2019-05-23T16:30:09.951Z,24.90
2019-05-23T16:32:38.279Z,24.90
2019-05-23T16:35:06.183Z,24.80
2019-05-23T16:37:34.045Z,24.80
2019-05-23T16:40:01.865Z,24.70
2019-05-23T16:42:31.410Z,24.80
2019-05-23T16:44:59.144Z,24.90
2019-05-23T16:47:27.288Z,24.90
2019-05-23T16:49:55.337Z,24.80
2019-05-23T16:52:23.336Z,24.50
2019-05-23T16:54:53.075Z,24.40
2019-05-23T16:57:58.767Z,24.50
2019-05-23T17:00:59.725Z,24.50
2019-05-23T17:03:38.965Z,24.30
2019-05-23T17:06:22.404Z,24.30
2019-05-23T17:09:10.215Z,24.20
2019-05-23T17:11:45.347Z,24.10
2019-05-23T17:14:25.849Z,23.90
2019-05-23T17:17:39.519Z,23.70
2019-05-23T17:19:57.651Z,23.40
2019-05-23T17:22:38.306Z,23.10
2019-05-23T17:25:21.214Z,22.80
2019-05-23T17:28:16.383Z,22.50
2019-05-23T17:30:58.866Z,22.30
2019-05-23T17:33:28.296Z,22.30
2019-05-23T17:35:56.317Z,22.20
2019-05-23T17:38:24.726Z,22.10
2019-05-23T17:40:53.338Z,22.00
2019-05-23T17:43:21.446Z,21.80
2019-05-23T17:45:51.070Z,21.70
2019-05-23T17:48:18.913Z,21.60
2019-05-23T17:50:46.895Z,21.50
2019-05-23T17:53:14.774Z,21.30
2019-05-23T17:55:43.076Z,21.20
2019-05-23T17:58:10.911Z,21.20
2019-05-23T18:00:40.434Z,21.10
2019-05-23T18:03:10.838Z,21.10
2019-05-23T18:05:38.944Z,21.00
2019-05-23T18:08:08.065Z,20.90
2019-05-23T18:10:44.705Z,20.80
2019-05-23T18:13:07.380Z,20.70
2019-05-23T18:15:35.839Z,20.70
2019-05-23T18:18:04.601Z,20.60
2019-05-23T18:20:34.402Z,20.50
2019-05-23T18:25:33.289Z,20.40
2019-05-23T18:28:03.170Z,20.40
2019-05-23T18:30:36.565Z,20.30
2019-05-23T18:33:08.085Z,20.20
2019-05-23T18:35:37.633Z,20.00
2019-05-23T18:38:05.847Z,19.90
2019-05-23T18:40:34.318Z,19.80
2019-05-23T18:43:02.457Z,19.90
2019-05-23T18:45:32.656Z,19.90
2019-05-23T18:48:01.378Z,19.90
2019-05-23T18:50:30.382Z,19.80
2019-05-23T18:52:58.908Z,19.70
2019-05-23T18:55:27.413Z,19.70
2019-05-23T18:57:55.486Z,19.60
2019-05-23T19:01:01.038Z,19.50
2019-05-23T19:03:30.682Z,19.50
2019-05-23T19:05:59.810Z,19.40
2019-05-23T19:08:27.791Z,19.30
2019-05-23T19:10:55.662Z,19.20
2019-05-23T19:13:26.556Z,19.10
2019-05-23T19:15:53.660Z,19.10
2019-05-23T19:18:22.446Z,18.90
2019-05-23T19:20:54.892Z,18.80
2019-05-23T19:23:23.748Z,18.70
2019-05-23T19:25:52.430Z,18.70
2019-05-23T19:28:20.802Z,18.60
2019-05-23T19:30:50.356Z,18.50
2019-05-23T19:33:19.649Z,18.40
2019-05-23T19:35:48.519Z,18.30
2019-05-23T19:38:16.481Z,18.30
2019-05-23T19:40:44.409Z,18.20
2019-05-23T19:43:14.509Z,18.20
2019-05-23T19:45:43.212Z,18.20
2019-05-23T19:48:11.111Z,18.10
2019-05-23T19:50:40.756Z,18.10
2019-05-23T19:53:10.210Z,18.10
2019-05-23T19:55:40.228Z,18.00
2019-05-23T19:58:09.109Z,17.90
2019-05-23T20:00:38.271Z,17.80
2019-05-23T20:03:09.010Z,17.80
2019-05-23T20:05:38.868Z,17.80
2019-05-23T20:08:08.602Z,17.80
2019-05-23T20:10:37.234Z,17.70
2019-05-23T20:13:06.039Z,17.80
2019-05-23T20:15:33.965Z,17.70
2019-05-23T20:18:02.061Z,17.60
2019-05-23T20:20:30.820Z,17.50
2019-05-23T20:22:59.592Z,17.50
2019-05-23T20:25:28.692Z,17.50
2019-05-23T20:28:09.326Z,17.50
2019-05-23T20:30:55.473Z,17.70
2019-05-23T20:33:25.051Z,17.80
2019-05-23T20:35:52.889Z,17.90
2019-05-23T20:38:36.101Z,18.00
2019-05-23T20:41:04.158Z,18.00
2019-05-23T20:43:32.045Z,17.90
2019-05-23T20:45:59.885Z,17.90
2019-05-23T20:48:28.545Z,18.00
2019-05-23T23:34:00.666Z,15.10
2019-05-23T23:36:28.351Z,15.00
2019-05-23T23:38:56.105Z,14.90
2019-05-23T23:41:23.875Z,14.90
2019-05-23T23:43:59.210Z,14.90
2019-05-23T23:46:39.529Z,14.90
2019-05-23T23:49:27.462Z,14.80
2019-05-23T23:52:15.087Z,14.70
2019-05-23T23:55:02.756Z,14.70
2019-05-23T23:57:52.479Z,14.70
